Ratmalana, Sri Lanka

8:11 AM IST on February 11, 2016 (GMT +0530)
Galle Face | | Change Station
CLOSE
Current Station
Personal Weather Station
Location: Colombo, WESTERN PROVINCE
Elevation: 46 ft
Nearby Weather Stations

Elev 46 ft 6.92 °N, 79.85 °E | Updated 1 minute ago

Clear
Clear
78.8 °F
Feels Like 82 °F
N
0.0
Wind Variable Wind from West
Gusts 0.0 mph

Today
High -- | Low -- °F
--% Chance of Precip.
Yesterday
High -- | Low -- °F
Precip. -- in
Pressure 29.89 in
Visibility 3.1 miles
Clouds Clear
Heat Index 82 °F
Dew Point 75 °F
Humidity 88%
Rainfall 0.00 in
Snow Depth Not available.
6:28 AM 6:21 PM
Waxing Crescent, 8% visible
METAR VCBI 110210Z 05005KT 5000 BR SKC 25/23 Q1012 BECMG 6000
Pressure 29.89 in
Visibility 3.1 miles
Clouds Clear
Heat Index 82 °F
Dew Point 75 °F
Humidity 88%
Rainfall 0.00 in
Snow Depth Not available.
6:28 AM 6:21 PM
Waxing Crescent, 8% visible
METAR VCBI 110210Z 05005KT 5000 BR SKC 25/23 Q1012 BECMG 6000

10-Day Weather Forecast

No radar image for this location.
×

Almanac

Astronomy

Feb. 11, 2016 Rise Set
Actual Time
Civil Twilight
Nautical Twilight
Astronomical Twilight
Moon
Length of Visible Light
Length of Day
Tomorrow will be .
, % of the Moon is Illuminated

Today's Extremes

Country Highs Country Lows

Community

WunderPhotos

Upload Photos

1,891,986 photos uploaded!

WunderBlog® & News

Nearby

Air Quality

  Air Quality AQ Index Pollutant
Not available.

Snow Depth

Station Depth Elevation

Earthquake Activity

City Distance Mag. Time & Date
Minimum magnitude displayed is 2.5.

Coastal Water Temperatures

Place Temperature

Stations

Nearby Weather Stations

Station Location Temp. Windchill Dew Point Humidity Wind Precip. Elev Updated Type